PWSweather.com
Personal Weather Stations
Station Observations
METEORENI
Tielt, Witte Kave, TieltBE

Tielt, Witte KaveTieltBE

Lat: 50.9938727, Lon: 3.341134199999942

Elevation: 0

Station Type: Netatmo

Latest ConditionsUpdated 7:44:00 PM GMT+01:01 Saturday, Aug 24, 2019
Currently Today's Max Today's Min Today's Average
Temperature 78.4°F25.8°C 85.8°F29.9°C 60.6°F15.9°C 73.1°F22.8°C
Dew Point 58.5°F14.7°C 66.2°F19.0°C 49.1°F9.5°C 58.1°F14.5°C
Winds 0.7 mph SE1.1 kmh SE 2.5 mph -4.0 kmh - - 1.4 mph 2.3 kmh
Wind Gusts 1.8 mph2.9 kmh 6.9 mph11.1 kmh - -
Humidity 53% 74% 51% 64%
Pressure 30.14 in1020.7 mb 30.27 in1025.1 mb 30.14 in1020.7 mb -
Hour Temp Dew Point Humidity Winds Wind Gusts Pressure Precip Precip Rate Daily Precip Total
07:44 PM 78.4°F25.8°C 58.5°F14.7°C 53% 0.7 mph SE1.1 kmh SE 1.8 mph2.9 kmh 30.14 in1020.7 mb 0.00 in0.0 mm 0.00 in0.0 mm 0.00 in0.0 mm
07:24 PM 80.1°F26.7°C 59.5°F15.3°C 52% 0.7 mph SE1.1 kmh SE 1.8 mph2.9 kmh 30.14 in1020.7 mb 0.00 in0.0 mm 0.00 in0.0 mm 0.00 in0.0 mm
07:04 PM 81.5°F27.5°C 60.4°F15.8°C 51% 0.7 mph SE1.1 kmh SE 1.8 mph2.9 kmh 30.14 in1020.7 mb 0.00 in0.0 mm 0.00 in0.0 mm 0.00 in0.0 mm
06:44 PM 82.6°F28.1°C 61.3°F16.3°C 51% 1.8 mph SE2.9 kmh SE 3.1 mph5.0 kmh 30.14 in1020.7 mb 0.00 in0.0 mm 0.00 in0.0 mm 0.00 in0.0 mm
06:24 PM 83.5°F28.6°C 62.2°F16.8°C 51% 2.5 mph SE4.0 kmh SE 3.8 mph6.1 kmh 30.14 in1020.7 mb 0.00 in0.0 mm 0.00 in0.0 mm 0.00 in0.0 mm
06:04 PM 84.4°F29.1°C 63.1°F17.3°C 51% 2.5 mph SE4.0 kmh SE 5.6 mph9.0 kmh 30.14 in1020.7 mb 0.00 in0.0 mm 0.00 in0.0 mm 0.00 in0.0 mm
05:44 PM 84.9°F29.4°C 63.5°F17.5°C 51% 2.5 mph SSE4.0 kmh SSE 5.6 mph9.0 kmh 30.14 in1020.7 mb 0.00 in0.0 mm 0.00 in0.0 mm 0.00 in0.0 mm
05:24 PM 85.5°F29.7°C 64.0°F17.8°C 51% 1.8 mph SE2.9 kmh SE 3.8 mph6.1 kmh 30.15 in1021.0 mb 0.00 in0.0 mm 0.00 in0.0 mm 0.00 in0.0 mm
05:03 PM 85.6°F29.8°C 64.8°F18.2°C 52% 1.8 mph SE2.9 kmh SE 3.1 mph5.0 kmh 30.15 in1021.0 mb 0.00 in0.0 mm 0.00 in0.0 mm 0.00 in0.0 mm
04:44 PM 85.8°F29.9°C 65.3°F18.5°C 53% 1.8 mph SE2.9 kmh SE 4.9 mph7.9 kmh 30.15 in1021.0 mb 0.00 in0.0 mm 0.00 in0.0 mm 0.00 in0.0 mm
04:23 PM 85.6°F29.8°C 65.1°F18.4°C 53% 1.8 mph SSE2.9 kmh SSE 3.8 mph6.1 kmh 30.15 in1021.0 mb 0.00 in0.0 mm 0.00 in0.0 mm 0.00 in0.0 mm
04:04 PM 85.6°F29.8°C 65.7°F18.7°C 54% 1.8 mph SSE2.9 kmh SSE 4.9 mph7.9 kmh 30.16 in1021.3 mb 0.00 in0.0 mm 0.00 in0.0 mm 0.00 in0.0 mm
03:43 PM 85.6°F29.8°C 65.7°F18.7°C 54% 2.5 mph SE4.0 kmh SE 6.3 mph10.1 kmh 30.16 in1021.3 mb 0.00 in0.0 mm 0.00 in0.0 mm 0.00 in0.0 mm
03:23 PM 85.5°F29.7°C 65.5°F18.6°C 54% 1.8 mph NE2.9 kmh NE 6.9 mph11.1 kmh 30.16 in1021.3 mb 0.00 in0.0 mm 0.00 in0.0 mm 0.00 in0.0 mm
03:09 PM 85.3°F29.6°C 65.7°F18.7°C 55% 2.5 mph SE4.0 kmh SE 5.6 mph9.0 kmh 30.16 in1021.3 mb 0.00 in0.0 mm 0.00 in0.0 mm 0.00 in0.0 mm
02:48 PM 85.3°F29.6°C 66.2°F19.0°C 56% 2.5 mph SSE4.0 kmh SSE 6.9 mph11.1 kmh 30.17 in1021.7 mb 0.00 in0.0 mm 0.00 in0.0 mm 0.00 in0.0 mm
02:29 PM 84.7°F29.3°C 65.7°F18.7°C 56% 1.8 mph S2.9 kmh S 3.8 mph6.1 kmh 30.17 in1021.7 mb 0.00 in0.0 mm 0.00 in0.0 mm 0.00 in0.0 mm
02:06 PM 84.4°F29.1°C 65.7°F18.7°C 57% 1.8 mph S2.9 kmh S 4.9 mph7.9 kmh 30.18 in1022.0 mb 0.00 in0.0 mm 0.00 in0.0 mm 0.00 in0.0 mm
01:47 PM 84.0°F28.9°C 65.8°F18.8°C 58% 1.8 mph SSE2.9 kmh SSE 5.6 mph9.0 kmh 30.18 in1022.0 mb 0.00 in0.0 mm 0.00 in0.0 mm 0.00 in0.0 mm
01:26 PM 83.1°F28.4°C 65.5°F18.6°C 59% 1.8 mph SE2.9 kmh SE 3.8 mph6.1 kmh 30.18 in1022.0 mb 0.00 in0.0 mm 0.00 in0.0 mm 0.00 in0.0 mm
01:07 PM 82.4°F28.0°C 65.7°F18.7°C 61% 2.5 mph SE4.0 kmh SE 4.9 mph7.9 kmh 30.19 in1022.4 mb 0.00 in0.0 mm 0.00 in0.0 mm 0.00 in0.0 mm
12:46 PM 81.7°F27.6°C 65.5°F18.6°C 62% 1.8 mph SE2.9 kmh SE 5.6 mph9.0 kmh 30.19 in1022.4 mb 0.00 in0.0 mm 0.00 in0.0 mm 0.00 in0.0 mm
12:26 PM 80.8°F27.1°C 65.5°F18.6°C 64% 2.5 mph SE4.0 kmh SE 6.9 mph11.1 kmh 30.19 in1022.4 mb 0.00 in0.0 mm 0.00 in0.0 mm 0.00 in0.0 mm
12:06 PM 79.9°F26.6°C 65.5°F18.6°C 66% 1.8 mph SE2.9 kmh SE 4.9 mph7.9 kmh 30.20 in1022.7 mb 0.00 in0.0 mm 0.00 in0.0 mm 0.00 in0.0 mm
11:46 AM 78.8°F26.0°C 64.9°F18.3°C 67% 2.5 mph SE4.0 kmh SE 5.6 mph9.0 kmh 30.20 in1022.7 mb 0.00 in0.0 mm 0.00 in0.0 mm 0.00 in0.0 mm
11:26 AM 77.7°F25.4°C 64.8°F18.2°C 69% 1.8 mph SE2.9 kmh SE 6.3 mph10.1 kmh 30.21 in1023.0 mb 0.00 in0.0 mm 0.00 in0.0 mm 0.00 in0.0 mm
11:03 AM 76.3°F24.6°C 63.9°F17.7°C 70% 1.8 mph SE2.9 kmh SE 3.1 mph5.0 kmh 30.21 in1023.0 mb 0.00 in0.0 mm 0.00 in0.0 mm 0.00 in0.0 mm
10:42 AM 75.0°F23.9°C 63.0°F17.2°C 71% 1.8 mph SE2.9 kmh SE 3.8 mph6.1 kmh 30.22 in1023.4 mb 0.00 in0.0 mm 0.00 in0.0 mm 0.00 in0.0 mm
10:23 AM 73.6°F23.1°C 62.1°F16.7°C 72% 1.8 mph SE2.9 kmh SE 3.8 mph6.1 kmh 30.22 in1023.4 mb 0.00 in0.0 mm 0.00 in0.0 mm 0.00 in0.0 mm
10:02 AM 71.6°F22.0°C 60.6°F15.9°C 73% 0.7 mph E1.1 kmh E 3.1 mph5.0 kmh 30.22 in1023.4 mb 0.00 in0.0 mm 0.00 in0.0 mm 0.00 in0.0 mm
09:42 AM 70.0°F21.1°C 59.0°F15.0°C 73% 0.7 mph SE1.1 kmh SE 3.8 mph6.1 kmh 30.22 in1023.4 mb 0.00 in0.0 mm 0.00 in0.0 mm 0.00 in0.0 mm
09:23 AM 68.4°F20.2°C 57.4°F14.1°C 73% 0.7 mph E1.1 kmh E 2.5 mph4.0 kmh 30.22 in1023.4 mb 0.00 in0.0 mm 0.00 in0.0 mm 0.00 in0.0 mm
09:02 AM 66.9°F19.4°C 56.5°F13.6°C 74% 0.7 mph SE1.1 kmh SE 2.5 mph4.0 kmh 30.22 in1023.4 mb 0.00 in0.0 mm 0.00 in0.0 mm 0.00 in0.0 mm
08:43 AM 65.7°F18.7°C 55.2°F12.9°C 74% 0.7 mph E1.1 kmh E 2.5 mph4.0 kmh 30.22 in1023.4 mb 0.00 in0.0 mm 0.00 in0.0 mm 0.00 in0.0 mm
08:22 AM 64.6°F18.1°C 53.8°F12.1°C 73% 0.7 mph E1.1 kmh E 2.5 mph4.0 kmh 30.22 in1023.4 mb 0.00 in0.0 mm 0.00 in0.0 mm 0.00 in0.0 mm
08:02 AM 63.7°F17.6°C 52.9°F11.6°C 73% 1.8 mph SE2.9 kmh SE 2.5 mph4.0 kmh 30.22 in1023.4 mb 0.00 in0.0 mm 0.00 in0.0 mm 0.00 in0.0 mm
07:46 AM 63.0°F17.2°C 52.2°F11.2°C 73% 1.8 mph ESE2.9 kmh ESE 2.5 mph4.0 kmh 30.22 in1023.4 mb 0.00 in0.0 mm 0.00 in0.0 mm 0.00 in0.0 mm
07:27 AM 62.2°F16.8°C 51.6°F10.9°C 73% 0.7 mph E1.1 kmh E 2.5 mph4.0 kmh 30.22 in1023.4 mb 0.00 in0.0 mm 0.00 in0.0 mm 0.00 in0.0 mm
07:06 AM 61.5°F16.4°C 50.4°F10.2°C 72% 0.7 mph E1.1 kmh E 2.5 mph4.0 kmh 30.22 in1023.4 mb 0.00 in0.0 mm 0.00 in0.0 mm 0.00 in0.0 mm
06:46 AM 61.0°F16.1°C 50.0°F10.0°C 72% 0.7 mph NW1.1 kmh NW 1.8 mph2.9 kmh 30.22 in1023.4 mb 0.00 in0.0 mm 0.00 in0.0 mm 0.00 in0.0 mm
06:27 AM 60.6°F15.9°C 49.1°F9.5°C 71% Calm Calm 1.8 mph2.9 kmh 30.22 in1023.4 mb 0.00 in0.0 mm 0.00 in0.0 mm 0.00 in0.0 mm
06:06 AM 60.8°F16.0°C 49.3°F9.6°C 71% 0.7 mph NW1.1 kmh NW 1.8 mph2.9 kmh 30.22 in1023.4 mb 0.00 in0.0 mm 0.00 in0.0 mm 0.00 in0.0 mm
05:47 AM 61.0°F16.1°C 49.1°F9.5°C 70% 0.7 mph NW1.1 kmh NW 1.8 mph2.9 kmh 30.22 in1023.4 mb 0.00 in0.0 mm 0.00 in0.0 mm 0.00 in0.0 mm
05:26 AM 61.3°F16.3°C 49.5°F9.7°C 70% Calm Calm 1.8 mph2.9 kmh 30.22 in1023.4 mb 0.00 in0.0 mm 0.00 in0.0 mm 0.00 in0.0 mm
05:06 AM 61.9°F16.6°C 50.0°F10.0°C 70% Calm Calm 1.8 mph2.9 kmh 30.22 in1023.4 mb 0.00 in0.0 mm 0.00 in0.0 mm 0.00 in0.0 mm
04:46 AM 62.2°F16.8°C 49.8°F9.9°C 69% 0.7 mph NW1.1 kmh NW 1.8 mph2.9 kmh 30.22 in1023.4 mb 0.00 in0.0 mm 0.00 in0.0 mm 0.00 in0.0 mm
04:26 AM 62.6°F17.0°C 50.2°F10.1°C 69% 0.7 mph NE1.1 kmh NE 1.8 mph2.9 kmh 30.23 in1023.7 mb 0.00 in0.0 mm 0.00 in0.0 mm 0.00 in0.0 mm
04:06 AM 63.0°F17.2°C 50.5°F10.3°C 69% 0.7 mph NNE1.1 kmh NNE 2.5 mph4.0 kmh 30.23 in1023.7 mb 0.00 in0.0 mm 0.00 in0.0 mm 0.00 in0.0 mm
03:48 AM 63.5°F17.5°C 50.7°F10.4°C 68% Calm Calm 1.8 mph2.9 kmh 30.23 in1023.7 mb 0.00 in0.0 mm 0.00 in0.0 mm 0.00 in0.0 mm
03:28 AM 64.0°F17.8°C 51.3°F10.7°C 68% 0.7 mph NE1.1 kmh NE 2.5 mph4.0 kmh 30.23 in1023.7 mb 0.00 in0.0 mm 0.00 in0.0 mm 0.00 in0.0 mm
03:08 AM 64.6°F18.1°C 51.8°F11.0°C 68% 0.7 mph NE1.1 kmh NE 2.5 mph4.0 kmh 30.24 in1024.0 mb 0.00 in0.0 mm 0.00 in0.0 mm 0.00 in0.0 mm
02:48 AM 65.1°F18.4°C 52.2°F11.2°C 68% 0.7 mph E1.1 kmh E 3.1 mph5.0 kmh 30.24 in1024.0 mb 0.00 in0.0 mm 0.00 in0.0 mm 0.00 in0.0 mm
02:27 AM 65.5°F18.6°C 52.2°F11.2°C 67% 0.7 mph NE1.1 kmh NE 3.1 mph5.0 kmh 30.24 in1024.0 mb 0.00 in0.0 mm 0.00 in0.0 mm 0.00 in0.0 mm
02:07 AM 65.8°F18.8°C 52.5°F11.4°C 67% 0.7 mph NE1.1 kmh NE 3.1 mph5.0 kmh 30.24 in1024.0 mb 0.00 in0.0 mm 0.00 in0.0 mm 0.00 in0.0 mm
01:46 AM 66.2°F19.0°C 52.9°F11.6°C 67% 1.8 mph NE2.9 kmh NE 3.1 mph5.0 kmh 30.25 in1024.4 mb 0.00 in0.0 mm 0.00 in0.0 mm 0.00 in0.0 mm
01:26 AM 66.6°F19.2°C 52.9°F11.6°C 66% 1.8 mph NE2.9 kmh NE 3.1 mph5.0 kmh 30.25 in1024.4 mb 0.00 in0.0 mm 0.00 in0.0 mm 0.00 in0.0 mm
01:06 AM 66.7°F19.3°C 52.9°F11.6°C 66% 1.8 mph NE2.9 kmh NE 3.8 mph6.1 kmh 30.25 in1024.4 mb 0.00 in0.0 mm 0.00 in0.0 mm 0.00 in0.0 mm
12:46 AM 66.9°F19.4°C 53.1°F11.7°C 66% 1.8 mph NE2.9 kmh NE 3.8 mph6.1 kmh 30.26 in1024.7 mb 0.00 in0.0 mm 0.00 in0.0 mm 0.00 in0.0 mm
12:26 AM 67.1°F19.5°C 53.2°F11.8°C 66% 0.7 mph NE1.1 kmh NE 3.1 mph5.0 kmh 30.27 in1025.1 mb 0.00 in0.0 mm 0.00 in0.0 mm 0.00 in0.0 mm
12:06 AM 67.3°F19.6°C 53.1°F11.7°C 65% 1.8 mph NE2.9 kmh NE 3.1 mph5.0 kmh 30.27 in1025.1 mb 0.00 in0.0 mm 0.00 in0.0 mm 0.00 in0.0 mm